createdAt,value
2018-07-27T00:00:05.051Z,9.07
2018-07-27T00:02:38.797Z,9.43
2018-07-27T00:05:12.852Z,9.97
2018-07-27T00:07:46.945Z,9.03
2018-07-27T00:10:21.820Z,9.00
2018-07-27T00:12:55.550Z,9.40
2018-07-27T00:15:29.241Z,8.77
2018-07-27T00:18:03.368Z,9.20
2018-07-27T00:20:37.134Z,8.50
2018-07-27T00:23:11.257Z,9.63
2018-07-27T00:25:45.144Z,9.67
2018-07-27T00:28:19.204Z,9.70
2018-07-27T00:30:53.438Z,10.07
2018-07-27T00:33:27.617Z,9.90
2018-07-27T00:36:01.490Z,10.23
2018-07-27T00:38:35.744Z,10.90
2018-07-27T00:41:09.838Z,10.30
2018-07-27T00:43:43.828Z,10.80
2018-07-27T00:46:17.987Z,10.30
2018-07-27T00:48:51.953Z,9.83
2018-07-27T00:51:26.061Z,10.40
2018-07-27T00:54:00.709Z,10.03
2018-07-27T00:56:34.690Z,9.80
2018-07-27T00:59:08.746Z,9.63
2018-07-27T01:01:42.741Z,9.80
2018-07-27T01:04:16.884Z,9.13
2018-07-27T01:06:50.671Z,9.40
2018-07-27T01:09:24.760Z,10.03
2018-07-27T01:11:58.641Z,9.80
2018-07-27T01:14:32.619Z,9.60
2018-07-27T01:17:06.539Z,9.90
2018-07-27T01:19:40.785Z,10.03
2018-07-27T01:22:15.096Z,10.23
2018-07-27T01:24:49.132Z,10.07
2018-07-27T01:27:23.116Z,9.87
2018-07-27T01:29:57.216Z,10.50
2018-07-27T01:32:31.164Z,10.67
2018-07-27T01:35:05.234Z,9.87
2018-07-27T01:37:39.402Z,10.93
2018-07-27T01:40:13.622Z,10.30
2018-07-27T01:42:47.831Z,10.83
2018-07-27T01:45:21.950Z,11.23
2018-07-27T01:47:55.660Z,10.47
2018-07-27T01:50:29.513Z,10.23
2018-07-27T01:53:04.144Z,9.50
2018-07-27T01:55:38.256Z,10.00
2018-07-27T01:58:12.278Z,9.50
2018-07-27T02:00:46.021Z,10.23
2018-07-27T02:03:20.125Z,9.80
2018-07-27T02:05:54.823Z,9.60
2018-07-27T02:08:28.722Z,10.33
2018-07-27T02:11:02.552Z,10.23
2018-07-27T02:13:36.757Z,11.00
2018-07-27T02:16:11.570Z,10.37
2018-07-27T02:18:45.700Z,10.33
2018-07-27T02:21:19.703Z,10.80
2018-07-27T02:23:54.068Z,11.00
2018-07-27T02:26:28.204Z,12.50
2018-07-27T02:29:02.025Z,11.07
2018-07-27T02:31:35.929Z,10.83
2018-07-27T02:34:10.830Z,11.50
2018-07-27T02:36:44.843Z,13.40
2018-07-27T02:39:18.673Z,12.10
2018-07-27T02:41:52.579Z,12.47
2018-07-27T02:44:26.503Z,11.37
2018-07-27T02:47:00.422Z,12.40
2018-07-27T02:49:34.613Z,12.10
2018-07-27T02:52:09.429Z,11.60
2018-07-27T02:54:43.293Z,11.83
2018-07-27T02:57:17.444Z,11.93
2018-07-27T02:59:51.349Z,12.17
2018-07-27T03:02:25.255Z,12.47
2018-07-27T03:04:59.520Z,11.90
2018-07-27T03:07:33.402Z,12.03
2018-07-27T03:10:07.569Z,11.30
2018-07-27T03:12:41.395Z,11.67
2018-07-27T03:15:15.398Z,11.00
2018-07-27T03:17:49.372Z,11.90
2018-07-27T03:20:23.195Z,12.40
2018-07-27T03:22:57.183Z,11.90
2018-07-27T03:25:31.139Z,12.03
2018-07-27T03:28:05.194Z,13.20
2018-07-27T03:30:39.124Z,12.13
2018-07-27T03:33:14.134Z,12.60
2018-07-27T03:35:47.941Z,12.33
2018-07-27T03:38:21.965Z,12.40
2018-07-27T03:40:55.891Z,12.40
2018-07-27T03:43:30.554Z,12.77
2018-07-27T03:46:04.581Z,12.93
2018-07-27T03:48:38.799Z,12.87
2018-07-27T03:51:12.745Z,12.53
2018-07-27T03:53:46.793Z,12.03
2018-07-27T03:56:21.775Z,12.40
2018-07-27T03:58:55.661Z,12.47
2018-07-27T04:01:29.656Z,11.63
2018-07-27T04:04:03.591Z,12.90
2018-07-27T04:06:37.811Z,14.13
2018-07-27T04:09:13.380Z,12.80
2018-07-27T04:11:47.491Z,11.67
2018-07-27T04:14:21.407Z,12.03
2018-07-27T04:16:55.688Z,12.60
2018-07-27T04:19:30.657Z,13.77
2018-07-27T04:22:04.521Z,12.30
2018-07-27T04:24:38.942Z,12.90
2018-07-27T04:27:12.760Z,12.80
2018-07-27T04:29:46.822Z,11.70
2018-07-27T04:32:21.018Z,13.03
2018-07-27T04:34:55.035Z,14.13
2018-07-27T04:37:29.390Z,14.00
2018-07-27T04:40:03.259Z,13.23
2018-07-27T04:42:37.501Z,14.03
2018-07-27T04:45:11.437Z,13.70
2018-07-27T04:47:45.368Z,13.50
2018-07-27T04:50:19.385Z,13.50
2018-07-27T04:52:54.436Z,13.83
2018-07-27T04:55:28.314Z,13.77
2018-07-27T04:58:03.020Z,13.07
2018-07-27T05:00:37.015Z,12.67
2018-07-27T05:03:11.003Z,12.03
2018-07-27T05:05:44.860Z,12.53
2018-07-27T05:08:19.076Z,13.67
2018-07-27T05:10:53.171Z,13.90
2018-07-27T05:13:27.221Z,13.30
2018-07-27T05:16:01.277Z,13.03
2018-07-27T05:18:35.215Z,13.80
2018-07-27T05:21:09.286Z,14.20
2018-07-27T05:23:43.375Z,13.43
2018-07-27T05:26:17.260Z,14.20
2018-07-27T05:28:51.171Z,13.33
2018-07-27T05:31:24.948Z,14.33
2018-07-27T05:33:58.906Z,14.73
2018-07-27T05:36:33.991Z,14.07
2018-07-27T05:39:07.975Z,14.10
2018-07-27T05:41:41.777Z,14.23
2018-07-27T05:44:15.646Z,13.83
2018-07-27T05:46:50.439Z,14.27
2018-07-27T05:49:24.489Z,13.47
2018-07-27T05:51:58.674Z,13.03
2018-07-27T05:54:32.541Z,13.20
2018-07-27T05:57:06.701Z,12.10
2018-07-27T05:59:40.603Z,13.53
2018-07-27T06:02:15.434Z,11.70
2018-07-27T06:04:49.309Z,11.67
2018-07-27T06:07:23.479Z,11.80
2018-07-27T06:09:57.322Z,11.50
2018-07-27T06:12:31.434Z,11.20
2018-07-27T06:15:05.287Z,10.80
2018-07-27T06:17:39.626Z,11.13
2018-07-27T06:20:13.627Z,11.77
2018-07-27T06:22:47.997Z,11.07
2018-07-27T06:25:21.897Z,10.10
2018-07-27T06:27:55.876Z,10.07
2018-07-27T06:30:29.984Z,8.77
2018-07-27T06:33:03.915Z,10.10
2018-07-27T06:35:37.881Z,9.80
2018-07-27T06:38:12.720Z,9.87
2018-07-27T06:40:46.508Z,9.97
2018-07-27T06:43:20.403Z,9.60
2018-07-27T06:45:54.216Z,9.27
2018-07-27T06:48:28.307Z,9.80
2018-07-27T06:51:02.266Z,9.03
2018-07-27T06:53:36.428Z,9.67
2018-07-27T06:56:10.626Z,8.93
2018-07-27T06:58:45.735Z,9.57
2018-07-27T07:01:19.622Z,9.07
2018-07-27T07:03:53.590Z,9.57
2018-07-27T07:06:27.636Z,8.50
2018-07-27T07:09:01.640Z,7.33
2018-07-27T07:11:35.851Z,7.70
2018-07-27T07:14:10.885Z,8.27
2018-07-27T07:16:45.042Z,8.23
2018-07-27T07:19:18.970Z,7.17
2018-07-27T07:21:53.003Z,7.27
2018-07-27T07:24:26.885Z,7.67
2018-07-27T07:27:01.160Z,6.77
2018-07-27T07:29:35.145Z,7.87
2018-07-27T07:32:09.297Z,8.30
2018-07-27T07:34:43.285Z,6.73
2018-07-27T07:37:17.665Z,7.03
2018-07-27T07:39:51.392Z,7.33
2018-07-27T07:42:25.341Z,6.40
2018-07-27T07:44:59.163Z,7.17
2018-07-27T07:47:33.343Z,7.43
2018-07-27T07:50:07.217Z,7.70
2018-07-27T07:52:41.219Z,6.13
2018-07-27T07:55:15.076Z,6.73
2018-07-27T07:57:48.827Z,7.37
2018-07-27T08:00:22.824Z,6.87
2018-07-27T08:02:56.759Z,6.80
2018-07-27T08:05:30.908Z,6.20
2018-07-27T08:08:04.854Z,6.93
2018-07-27T08:10:38.710Z,6.73
2018-07-27T08:13:12.688Z,6.17
2018-07-27T08:15:46.608Z,5.83
2018-07-27T08:18:20.656Z,6.33
2018-07-27T08:20:55.365Z,5.40
2018-07-27T08:23:29.304Z,5.37
2018-07-27T08:27:05.375Z,4.77
2018-07-27T08:29:39.645Z,4.40
2018-07-27T08:32:13.680Z,5.70
2018-07-27T08:34:47.629Z,4.43
2018-07-27T08:37:21.746Z,4.87
2018-07-27T08:39:55.817Z,4.97
2018-07-27T08:42:30.123Z,4.90
2018-07-27T08:45:04.508Z,5.50
2018-07-27T08:47:38.401Z,5.33
2018-07-27T08:50:12.773Z,4.87
2018-07-27T08:52:47.490Z,5.50
2018-07-27T08:55:21.499Z,5.40
2018-07-27T08:57:55.412Z,5.20
2018-07-27T09:00:42.988Z,5.30
2018-07-27T09:03:17.169Z,5.50
2018-07-27T09:05:51.144Z,5.50
2018-07-27T09:08:24.986Z,5.30
2018-07-27T09:10:58.989Z,5.63
2018-07-27T09:13:32.912Z,6.17
2018-07-27T09:16:06.770Z,5.53
2018-07-27T09:18:40.678Z,6.37
2018-07-27T09:21:14.643Z,4.80
2018-07-27T09:23:48.660Z,5.50
2018-07-27T09:26:22.749Z,6.10
2018-07-27T09:28:56.826Z,5.40
2018-07-27T09:31:30.617Z,5.60
2018-07-27T09:34:04.693Z,5.77
2018-07-27T09:36:38.481Z,5.70
2018-07-27T09:39:14.655Z,6.30
2018-07-27T09:41:48.604Z,6.40
2018-07-27T09:44:22.670Z,6.20
2018-07-27T09:46:56.838Z,5.90
2018-07-27T09:49:30.763Z,6.23
2018-07-27T09:52:04.750Z,5.50
2018-07-27T09:54:38.812Z,5.80
2018-07-27T09:57:12.527Z,5.10
2018-07-27T09:59:46.734Z,5.77
2018-07-27T10:02:20.829Z,5.70
2018-07-27T10:04:54.870Z,5.10
2018-07-27T10:07:29.514Z,5.50
2018-07-27T10:10:03.638Z,4.47
2018-07-27T10:12:37.409Z,5.47
2018-07-27T10:15:12.433Z,4.80
2018-07-27T10:17:46.636Z,5.13
2018-07-27T10:20:20.681Z,5.43
2018-07-27T10:22:54.648Z,5.43
2018-07-27T10:25:29.983Z,5.20
2018-07-27T10:28:11.052Z,5.77
2018-07-27T10:30:45.832Z,5.03
2018-07-27T10:33:19.873Z,5.23
2018-07-27T10:35:53.903Z,5.40
2018-07-27T10:38:27.740Z,4.80
2018-07-27T10:41:01.479Z,5.10
2018-07-27T10:43:35.960Z,4.90
2018-07-27T10:46:10.050Z,5.40
2018-07-27T10:48:43.823Z,4.30
2018-07-27T10:51:17.708Z,5.00
2018-07-27T10:53:51.638Z,4.43
2018-07-27T10:56:25.833Z,4.30
2018-07-27T10:58:59.873Z,4.60
2018-07-27T11:01:34.170Z,4.27
2018-07-27T11:04:07.927Z,4.47
2018-07-27T11:06:41.988Z,4.07
2018-07-27T11:09:15.858Z,4.43
2018-07-27T11:11:49.825Z,4.67
2018-07-27T11:14:23.968Z,4.43
2018-07-27T11:16:57.818Z,4.40
2018-07-27T11:19:31.731Z,4.30
2018-07-27T11:22:05.798Z,4.80
2018-07-27T11:24:39.678Z,5.10
2018-07-27T11:27:13.732Z,4.30
2018-07-27T11:29:47.688Z,4.77
2018-07-27T11:32:21.612Z,5.20
2018-07-27T11:34:55.516Z,4.50
2018-07-27T11:37:29.512Z,4.67
2018-07-27T11:40:03.774Z,5.63
2018-07-27T11:42:37.630Z,5.37
2018-07-27T11:45:11.837Z,4.90
2018-07-27T11:47:45.950Z,5.23
2018-07-27T11:50:20.092Z,5.50
2018-07-27T11:52:53.890Z,5.20
2018-07-27T11:55:28.898Z,5.23
2018-07-27T11:58:03.070Z,4.93
2018-07-27T12:00:38.001Z,5.33
2018-07-27T12:03:12.127Z,4.73
2018-07-27T12:05:45.893Z,5.87
2018-07-27T12:08:19.979Z,5.20
2018-07-27T12:10:54.067Z,5.50
2018-07-27T12:13:28.096Z,5.10
2018-07-27T12:16:02.195Z,4.67
2018-07-27T12:18:36.024Z,5.10
2018-07-27T12:21:10.048Z,5.30
2018-07-27T12:23:43.950Z,6.17
2018-07-27T12:26:12.676Z,5.70
2018-07-27T12:28:41.474Z,5.10
2018-07-27T12:31:10.113Z,5.63
2018-07-27T12:33:38.831Z,5.20
2018-07-27T12:36:07.765Z,4.73
2018-07-27T12:38:36.680Z,5.40
2018-07-27T12:41:05.788Z,5.07
2018-07-27T12:43:34.674Z,5.50
2018-07-27T12:46:03.473Z,5.07
2018-07-27T12:48:32.505Z,4.77
2018-07-27T12:51:01.438Z,4.43
2018-07-27T12:53:30.477Z,4.47
2018-07-27T12:55:59.244Z,4.60
2018-07-27T12:58:27.958Z,5.00
2018-07-27T13:00:56.676Z,4.40
2018-07-27T13:03:25.266Z,4.30
2018-07-27T13:05:54.337Z,5.20
2018-07-27T13:11:15.494Z,4.90
2018-07-27T13:13:44.233Z,6.20
2018-07-27T13:16:12.927Z,4.47
2018-07-27T13:18:41.601Z,4.00
2018-07-27T13:21:10.431Z,4.40
2018-07-27T13:23:44.219Z,5.20
2018-07-27T13:28:43.560Z,4.60
2018-07-27T13:31:12.886Z,5.07
2018-07-27T13:33:55.434Z,4.77
2018-07-27T13:36:24.090Z,4.30
2018-07-27T13:38:52.941Z,5.40
2018-07-27T13:41:21.609Z,4.10
2018-07-27T13:43:50.546Z,4.73
2018-07-27T13:46:19.311Z,4.67
2018-07-27T13:48:48.036Z,4.50
2018-07-27T13:53:42.091Z,6.40
2018-07-27T13:56:10.959Z,5.50
2018-07-27T13:58:40.262Z,6.80
2018-07-27T14:01:09.249Z,5.70
2018-07-27T14:03:38.161Z,5.90
2018-07-27T14:06:07.144Z,5.00
2018-07-27T14:08:36.192Z,5.43
2018-07-27T14:11:05.125Z,5.03
2018-07-27T14:13:33.824Z,4.80
2018-07-27T14:16:02.776Z,5.10
2018-07-27T14:18:31.622Z,5.37
2018-07-27T14:21:00.536Z,4.97
2018-07-27T14:23:29.710Z,5.07
2018-07-27T14:25:59.801Z,5.63
2018-07-27T14:28:28.649Z,5.27
2018-07-27T14:30:57.485Z,5.00
2018-07-27T14:33:26.285Z,5.30
2018-07-27T14:35:55.161Z,5.80
2018-07-27T14:38:23.972Z,4.97
2018-07-27T14:40:52.851Z,4.90
2018-07-27T14:43:22.189Z,4.83
2018-07-27T14:45:51.049Z,5.77
2018-07-27T14:48:20.230Z,5.07
2018-07-27T14:50:49.359Z,5.00
2018-07-27T14:53:18.818Z,5.57
2018-07-27T14:55:48.386Z,5.57
2018-07-27T14:58:17.440Z,5.20
2018-07-27T15:00:46.549Z,5.10
2018-07-27T15:03:15.639Z,5.10
2018-07-27T15:05:45.866Z,4.67
2018-07-27T15:08:14.894Z,4.67
2018-07-27T15:10:43.875Z,5.50
2018-07-27T15:13:13.244Z,5.47
2018-07-27T15:15:42.162Z,5.30
2018-07-27T15:18:11.059Z,5.10
2018-07-27T15:20:40.114Z,5.00
2018-07-27T15:23:09.052Z,5.00
2018-07-27T15:25:37.957Z,5.10
2018-07-27T15:28:06.830Z,4.63
2018-07-27T15:30:35.759Z,5.00
2018-07-27T15:33:04.791Z,4.10
2018-07-27T15:35:33.804Z,4.87
2018-07-27T15:38:02.558Z,4.60
2018-07-27T15:40:31.521Z,4.33
2018-07-27T15:43:00.352Z,4.97
2018-07-27T15:45:29.329Z,5.20
2018-07-27T15:47:58.197Z,4.80
2018-07-27T15:50:27.359Z,4.70
2018-07-27T15:52:56.153Z,4.80
2018-07-27T15:55:25.412Z,4.93
2018-07-27T15:57:54.409Z,4.47
2018-07-27T16:00:23.194Z,4.23
2018-07-27T16:02:52.179Z,5.40
2018-07-27T16:05:21.247Z,4.90
2018-07-27T16:07:50.166Z,5.67
2018-07-27T16:10:19.161Z,4.90
2018-07-27T16:12:47.988Z,5.57
2018-07-27T16:15:16.939Z,4.63
2018-07-27T16:17:45.743Z,4.67
2018-07-27T16:20:14.930Z,4.03
2018-07-27T16:22:43.897Z,5.13
2018-07-27T16:25:12.714Z,4.90
2018-07-27T16:27:41.579Z,4.50
2018-07-27T16:30:10.419Z,4.30
2018-07-27T16:32:39.320Z,4.20
2018-07-27T16:35:08.408Z,4.90
2018-07-27T16:37:37.351Z,5.47
2018-07-27T16:40:06.184Z,5.63
2018-07-27T16:42:35.150Z,5.17
2018-07-27T16:45:06.285Z,4.30
2018-07-27T16:47:35.083Z,5.43
2018-07-27T16:50:04.217Z,5.80
2018-07-27T16:52:33.062Z,4.60
2018-07-27T16:55:01.826Z,4.73
2018-07-27T16:57:30.604Z,4.60
2018-07-27T16:59:59.562Z,4.50
2018-07-27T17:02:28.461Z,4.10
2018-07-27T17:04:57.242Z,4.00
2018-07-27T17:07:27.225Z,4.50
2018-07-27T17:09:56.135Z,5.40
2018-07-27T17:12:26.225Z,4.70
2018-07-27T17:14:56.973Z,4.43
2018-07-27T17:17:26.036Z,5.27
2018-07-27T17:19:54.950Z,4.43
2018-07-27T17:22:23.754Z,5.20
2018-07-27T17:24:52.827Z,5.30
2018-07-27T17:27:21.753Z,4.87
2018-07-27T17:29:50.829Z,4.80
2018-07-27T17:32:19.993Z,5.00
2018-07-27T17:34:49.109Z,4.50
2018-07-27T17:37:18.437Z,5.40
2018-07-27T17:39:47.643Z,4.90
2018-07-27T17:42:16.648Z,4.60
2018-07-27T17:44:46.581Z,5.20
2018-07-27T17:47:15.505Z,5.20
2018-07-27T17:49:44.317Z,4.87
2018-07-27T17:52:13.193Z,4.63
2018-07-27T17:54:42.286Z,4.90
2018-07-27T17:57:11.274Z,4.70
2018-07-27T17:59:40.160Z,5.40
2018-07-27T18:02:09.286Z,5.37
2018-07-27T18:04:38.123Z,5.20
2018-07-27T18:07:07.153Z,4.87
2018-07-27T18:09:36.458Z,4.93
2018-07-27T18:12:05.436Z,4.70
2018-07-27T18:14:34.254Z,5.13
2018-07-27T18:17:03.167Z,5.67
2018-07-27T18:19:31.957Z,5.43
2018-07-27T18:22:00.915Z,5.13
2018-07-27T18:24:29.830Z,6.20
2018-07-27T18:26:58.682Z,5.33
2018-07-27T18:29:27.493Z,6.73
2018-07-27T18:31:56.458Z,5.13
2018-07-27T18:34:26.333Z,6.40
2018-07-27T18:36:57.250Z,6.43
2018-07-27T18:39:26.174Z,6.80
2018-07-27T18:41:55.067Z,5.30
2018-07-27T18:44:24.085Z,6.37
2018-07-27T18:46:53.066Z,6.40
2018-07-27T18:49:21.938Z,6.00
2018-07-27T18:51:50.755Z,6.53
2018-07-27T18:54:19.689Z,6.33
2018-07-27T18:56:48.438Z,6.80
2018-07-27T18:59:17.345Z,7.20
2018-07-27T19:01:46.118Z,6.93
2018-07-27T19:04:15.144Z,7.23
2018-07-27T19:06:44.106Z,7.70
2018-07-27T19:09:13.815Z,7.60
2018-07-27T19:11:42.685Z,7.37
2018-07-27T19:14:11.519Z,6.70
2018-07-27T19:16:40.498Z,7.37
2018-07-27T19:19:09.601Z,8.53
2018-07-27T19:21:38.588Z,8.40
2018-07-27T19:24:07.593Z,8.33
2018-07-27T19:26:36.675Z,8.60
2018-07-27T19:29:05.520Z,8.57
2018-07-27T19:31:34.467Z,7.97
2018-07-27T19:34:03.469Z,8.77
2018-07-27T19:36:32.432Z,8.40
2018-07-27T19:39:01.370Z,8.03
2018-07-27T19:41:30.669Z,8.27
2018-07-27T19:43:59.707Z,9.30
2018-07-27T19:46:28.835Z,9.40
2018-07-27T19:49:01.085Z,9.40
2018-07-27T19:51:29.887Z,10.17
2018-07-27T19:53:58.801Z,8.90
2018-07-27T19:56:27.665Z,9.07
2018-07-27T19:58:56.549Z,9.37
2018-07-27T20:01:25.464Z,8.63
2018-07-27T20:03:54.441Z,8.63
2018-07-27T20:06:23.320Z,10.97
2018-07-27T20:08:52.036Z,10.67
2018-07-27T20:11:21.117Z,9.27
2018-07-27T20:13:49.990Z,8.60
2018-07-27T20:16:18.778Z,9.30
2018-07-27T20:18:47.651Z,8.40
2018-07-27T20:21:16.589Z,9.40
2018-07-27T20:23:45.572Z,10.63
2018-07-27T20:26:14.453Z,9.17
2018-07-27T20:28:43.130Z,8.93
2018-07-27T20:31:12.985Z,8.87
2018-07-27T20:33:41.902Z,9.00
2018-07-27T20:36:10.796Z,9.33
2018-07-27T20:38:39.616Z,9.07
2018-07-27T20:41:08.560Z,10.73
2018-07-27T20:43:37.308Z,9.00
2018-07-27T20:46:06.065Z,9.47
2018-07-27T20:48:34.811Z,9.40
2018-07-27T20:51:03.811Z,9.00
2018-07-27T20:53:32.693Z,10.77
2018-07-27T20:56:01.599Z,16.57
2018-07-27T20:58:30.465Z,11.40
2018-07-27T21:00:59.318Z,9.67
2018-07-27T21:03:28.135Z,10.20
2018-07-27T21:05:57.098Z,8.60
2018-07-27T21:08:25.933Z,10.00
2018-07-27T21:10:55.837Z,10.20
2018-07-27T21:13:24.794Z,9.93
2018-07-27T21:15:53.967Z,9.17
2018-07-27T21:18:22.718Z,8.73
2018-07-27T21:20:51.788Z,9.43
2018-07-27T21:23:20.668Z,9.70
2018-07-27T21:25:49.395Z,10.90
2018-07-27T21:28:18.358Z,10.90
2018-07-27T21:30:47.116Z,11.13
2018-07-27T21:33:16.078Z,11.70
2018-07-27T21:35:44.844Z,10.27
2018-07-27T21:38:13.664Z,10.43
2018-07-27T21:40:42.398Z,11.57
2018-07-27T21:43:11.320Z,12.40
2018-07-27T21:45:40.217Z,11.53
2018-07-27T21:48:10.207Z,11.23
2018-07-27T21:50:39.129Z,11.97
2018-07-27T21:53:07.975Z,11.50
2018-07-27T21:55:36.745Z,10.90
2018-07-27T21:58:05.657Z,11.40
2018-07-27T22:00:34.766Z,12.40
2018-07-27T22:03:05.409Z,11.00
2018-07-27T22:05:34.518Z,11.60
2018-07-27T22:08:03.390Z,11.93
2018-07-27T22:10:32.275Z,11.60
2018-07-27T22:13:07.604Z,11.27
2018-07-27T22:15:36.284Z,13.03
2018-07-27T22:18:05.426Z,14.33
2018-07-27T22:20:34.267Z,11.97
2018-07-27T22:23:02.956Z,11.97
2018-07-27T22:25:31.974Z,12.97
2018-07-27T22:28:00.829Z,13.60
2018-07-27T22:30:29.631Z,12.93
2018-07-27T22:32:58.418Z,12.13
2018-07-27T22:35:27.355Z,13.17
2018-07-27T22:37:56.135Z,12.27
2018-07-27T22:40:26.227Z,13.67
2018-07-27T22:42:55.137Z,11.90
2018-07-27T22:45:23.949Z,11.77
2018-07-27T22:47:52.870Z,11.43
2018-07-27T22:50:21.638Z,12.60
2018-07-27T22:52:50.344Z,13.83
2018-07-27T22:55:19.072Z,12.63
2018-07-27T22:57:47.896Z,11.03
2018-07-27T23:00:16.882Z,13.13
2018-07-27T23:02:45.689Z,11.93
2018-07-27T23:05:14.512Z,12.07
2018-07-27T23:07:43.495Z,11.53
2018-07-27T23:10:12.306Z,10.80
2018-07-27T23:12:41.180Z,11.23
2018-07-27T23:15:11.755Z,12.43
2018-07-27T23:17:40.646Z,12.30
2018-07-27T23:20:12.345Z,11.17
2018-07-27T23:22:41.507Z,11.17
2018-07-27T23:25:10.347Z,10.67
2018-07-27T23:27:39.024Z,11.00
2018-07-27T23:30:10.164Z,11.13
2018-07-27T23:32:38.910Z,10.53
2018-07-27T23:35:07.832Z,11.60
2018-07-27T23:37:36.690Z,12.33
2018-07-27T23:40:06.134Z,11.87
2018-07-27T23:42:34.940Z,11.10
2018-07-27T23:45:03.684Z,11.60
2018-07-27T23:47:32.591Z,10.80
2018-07-27T23:50:01.354Z,10.10
2018-07-27T23:52:30.232Z,11.47
2018-07-27T23:54:59.031Z,11.03
2018-07-27T23:57:27.828Z,10.40
2018-07-27T23:59:56.593Z,10.20
